Time;durP1;ratioP1;P1;durP2;ratioP2;P2;SDS_P1;SDS_P2;PMS_P1;PMS_P2;Temp;Humidity;BMP_temperature;BMP_pressure;BME280_temperature;BME280_humidity;BME280_pressure;Samples;Min_cycle;Max_cycle;Signal;HPM_P1;HPM_P2
2021/11/27 00:00:08;;;;;;;25.80;15.70;;;;;;;4.91;65.08;98209.84;4347865;32;34780;-87
2021/11/27 00:02:40;;;;;;;25.60;15.05;;;;;;;4.79;64.98;98211.09;4348197;32;33617;-87
2021/11/27 00:05:09;;;;;;;30.60;14.63;;;;;;;5.03;64.63;98213.78;4347835;32;34361;-87
2021/11/27 00:07:38;;;;;;;27.23;15.52;;;;;;;5.22;64.07;98216.56;4347793;32;32757;-87
2021/11/27 00:10:08;;;;;;;25.23;14.63;;;;;;;5.28;64.26;98216.38;4347289;32;33234;-87
2021/11/27 00:12:37;;;;;;;27.87;15.70;;;;;;;5.48;63.58;98216.53;4347643;32;33288;-87
2021/11/27 00:15:07;;;;;;;28.85;15.45;;;;;;;5.39;63.93;98219.41;4348289;32;33312;-87
2021/11/27 00:17:36;;;;;;;24.67;13.55;;;;;;;5.44;64.02;98227.03;4348940;32;32363;-87
2021/11/27 00:20:08;;;;;;;26.50;15.10;;;;;;;5.40;64.03;98215.94;4363138;32;33075;-86
2021/11/27 00:22:37;;;;;;;27.35;14.68;;;;;;;5.68;62.79;98208.06;4354472;32;34929;-87
2021/11/27 00:25:06;;;;;;;27.08;14.98;;;;;;;5.27;63.50;98214.69;4347708;32;34478;-87
2021/11/27 00:27:34;;;;;;;28.00;16.40;;;;;;;5.26;63.73;98213.00;4347569;32;33397;-88
2021/11/27 00:30:04;;;;;;;27.25;15.15;;;;;;;5.59;63.12;98203.22;4361399;32;33923;-87
2021/11/27 00:32:32;;;;;;;26.08;15.32;;;;;;;5.49;63.68;98188.94;4347298;32;34513;-87
2021/11/27 00:35:00;;;;;;;27.33;15.50;;;;;;;5.40;63.15;98197.00;4347809;32;32678;-87
2021/11/27 00:37:28;;;;;;;25.75;14.87;;;;;;;5.53;63.19;98208.59;4347610;32;33090;-87
2021/11/27 00:39:57;;;;;;;25.20;15.30;;;;;;;5.47;63.27;98203.66;4336880;32;33735;-87
2021/11/27 00:42:25;;;;;;;23.70;14.60;;;;;;;5.12;63.87;98201.38;4362063;32;33741;-87
2021/11/27 00:44:52;;;;;;;25.15;14.43;;;;;;;5.58;62.65;98195.53;4374731;32;34316;-87
2021/11/27 00:47:20;;;;;;;23.60;13.98;;;;;;;5.52;62.78;98201.78;4374712;32;33619;-87
2021/11/27 00:49:53;;;;;;;25.00;14.07;;;;;;;5.68;62.36;98215.00;4375127;32;34751;-87
2021/11/27 00:52:21;;;;;;;24.77;14.02;;;;;;;5.82;61.89;98211.91;4362524;32;33163;-87
2021/11/27 00:54:49;;;;;;;25.45;13.93;;;;;;;6.02;61.28;98218.97;4361960;32;32946;-87
2021/11/27 00:57:17;;;;;;;23.40;14.27;;;;;;;5.74;61.28;98216.50;4362262;32;32999;-87
2021/11/27 00:59:45;;;;;;;19.92;12.37;;;;;;;5.87;61.02;98211.75;4374144;32;33028;-87
2021/11/27 01:02:13;;;;;;;21.87;12.57;;;;;;;5.72;61.01;98213.12;4349702;32;34408;-88
2021/11/27 01:04:51;;;;;;;21.90;12.93;;;;;;;5.29;62.65;98206.00;4349479;32;33626;-87
2021/11/27 01:07:18;;;;;;;19.65;11.50;;;;;;;5.48;62.09;98197.63;4349333;32;33486;-87
2021/11/27 01:09:46;;;;;;;21.30;12.13;;;;;;;5.56;61.53;98205.94;4361802;32;33933;-87
2021/11/27 01:12:15;;;;;;;19.50;11.18;;;;;;;5.59;61.91;98212.72;4361987;32;33606;-87
2021/11/27 01:14:42;;;;;;;21.62;11.85;;;;;;;5.62;61.41;98217.78;4362136;32;33636;-87
2021/11/27 01:17:11;;;;;;;21.17;11.85;;;;;;;5.63;61.18;98227.22;4361944;32;33123;-88
2021/11/27 01:19:41;;;;;;;20.17;11.95;;;;;;;5.67;61.18;98229.62;4374429;32;32908;-87
2021/11/27 01:22:16;;;;;;;19.92;11.23;;;;;;;5.90;60.57;98232.31;4374302;32;33795;-87
2021/11/27 01:24:46;;;;;;;20.62;11.60;;;;;;;5.84;60.76;98233.37;4373968;32;34352;-87
2021/11/27 01:27:14;;;;;;;18.35;10.93;;;;;;;6.18;59.82;98239.94;4374256;32;34042;-87
2021/11/27 01:29:44;;;;;;;18.27;10.48;;;;;;;6.06;60.15;98230.88;4361974;32;34823;-87
2021/11/27 01:32:15;;;;;;;18.35;11.43;;;;;;;6.18;59.81;98238.19;4362111;32;34722;-87
2021/11/27 01:34:42;;;;;;;19.45;11.48;;;;;;;6.05;59.65;98231.78;4361685;32;34113;-88
2021/11/27 01:37:11;;;;;;;19.08;11.10;;;;;;;6.17;59.52;98236.50;4360651;32;32753;-87
2021/11/27 01:39:41;;;;;;;19.85;11.35;;;;;;;5.77;60.60;98231.91;4349223;32;33182;-87
2021/11/27 01:42:11;;;;;;;22.42;11.68;;;;;;;6.18;59.70;98222.69;4361526;32;33533;-87
2021/11/27 01:44:39;;;;;;;18.23;10.15;;;;;;;5.98;60.39;98230.31;4361880;32;33156;-87
2021/11/27 01:47:08;;;;;;;20.08;11.30;;;;;;;5.89;60.78;98236.66;4348924;32;34409;-87
2021/11/27 01:49:36;;;;;;;17.90;9.88;;;;;;;5.80;61.05;98224.06;4374026;32;34628;-87
2021/11/27 01:52:05;;;;;;;17.02;10.05;;;;;;;5.87;60.79;98222.91;4361832;32;33458;-87
2021/11/27 01:54:34;;;;;;;15.95;10.00;;;;;;;5.89;60.30;98230.63;4361587;32;32756;-87
2021/11/27 01:57:04;;;;;;;17.00;9.77;;;;;;;5.76;60.76;98235.41;4361853;32;33940;-87
2021/11/27 01:59:35;;;;;;;17.42;9.73;;;;;;;6.03;60.37;98222.41;4373872;32;34290;-88
2021/11/27 02:02:04;;;;;;;;;;;;;;;6.06;60.55;98219.69;4361592;32;34643;-88
2021/11/27 02:04:33;;;;;;;17.42;10.05;;;;;;;6.17;60.21;98218.41;4373311;32;33561;-88
2021/11/27 02:07:01;;;;;;;16.92;9.38;;;;;;;6.10;60.17;98209.19;4361554;32;33008;-87
2021/11/27 02:09:32;;;;;;;16.58;9.77;;;;;;;6.10;60.63;98209.19;4361250;32;33965;-88
2021/11/27 02:12:06;;;;;;;19.95;11.12;;;;;;;6.42;59.62;98207.12;4361290;32;34298;-88
2021/11/27 02:14:35;;;;;;;19.75;11.02;;;;;;;6.15;60.46;98217.59;4349039;32;33441;-88
2021/11/27 02:17:07;;;;;;;16.73;10.20;;;;;;;6.15;60.45;98219.34;4349175;32;32635;-87
2021/11/27 02:19:34;;;;;;;17.48;10.18;;;;;;;6.21;60.36;98220.88;4349546;32;33581;-88
2021/11/27 02:22:03;;;;;;;20.62;10.93;;;;;;;6.14;60.27;98212.50;4348836;32;33381;-88
2021/11/27 02:24:32;;;;;;;18.35;9.20;;;;;;;6.15;60.16;98215.00;4361321;32;33339;-88
2021/11/27 02:27:00;;;;;;;16.60;10.50;;;;;;;5.85;60.02;98212.63;4361057;32;33585;-87
2021/11/27 02:29:32;;;;;;;18.52;9.88;;;;;;;6.06;59.71;98217.13;4348607;32;33644;-87
2021/11/27 02:32:01;;;;;;;18.17;10.25;;;;;;;6.19;59.28;98213.16;4360902;32;33298;-87
2021/11/27 02:34:29;;;;;;;17.92;10.48;;;;;;;6.03;59.81;98209.47;4348708;32;34783;-88
2021/11/27 02:37:00;;;;;;;17.50;9.80;;;;;;;5.97;59.93;98219.13;4360854;32;34021;-87
2021/11/27 02:39:29;;;;;;;14.93;8.70;;;;;;;5.80;59.91;98217.13;4336247;32;33206;-87
2021/11/27 02:41:57;;;;;;;15.77;9.43;;;;;;;5.43;60.09;98231.34;4348257;32;33666;-88
2021/11/27 02:44:29;;;;;;;15.73;9.95;;;;;;;5.81;58.96;98226.56;4360757;32;33733;-87
2021/11/27 02:46:57;;;;;;;;;;;;;;;5.96;59.13;98227.75;4373562;32;33598;-88
2021/11/27 02:49:25;;;;;;;15.73;9.38;;;;;;;6.16;58.51;98233.97;4362092;32;32927;-88
2021/11/27 02:51:53;;;;;;;17.12;10.20;;;;;;;6.05;58.81;98249.03;4375634;32;34413;-87
2021/11/27 02:54:22;;;;;;;17.77;10.07;;;;;;;6.09;59.04;98251.47;4350522;32;33763;-88
2021/11/27 02:56:51;;;;;;;17.15;10.70;;;;;;;6.01;58.88;98254.31;4362696;32;34268;-88
2021/11/27 02:59:22;;;;;;;17.00;9.60;;;;;;;5.83;59.46;98257.53;4362484;32;33894;-88
2021/11/27 03:01:54;;;;;;;17.75;10.55;;;;;;;5.94;59.53;98267.50;4362621;32;32736;-88
2021/11/27 03:04:25;;;;;;;14.98;8.95;;;;;;;5.74;59.72;98261.28;4364312;32;33964;-88
2021/11/27 03:06:53;;;;;;;18.08;9.70;;;;;;;5.97;59.01;98242.38;4372056;32;33965;-87
2021/11/27 03:09:22;;;;;;;16.77;9.60;;;;;;;6.11;58.76;98235.88;4375269;32;33499;-87
2021/11/27 03:11:53;;;;;;;18.77;10.77;;;;;;;6.22;58.51;98240.66;4375540;32;33208;-88
2021/11/27 03:14:23;;;;;;;16.95;9.55;;;;;;;5.67;60.48;98247.72;4362913;32;32808;-88
2021/11/27 03:16:53;;;;;;;16.35;10.02;;;;;;;5.94;59.96;98239.91;4362647;32;32498;-88
2021/11/27 03:19:32;;;;;;;16.15;9.20;;;;;;;6.11;58.86;98241.88;4353024;32;34697;-89
2021/11/27 03:22:00;;;;;;;16.33;9.80;;;;;;;6.22;58.54;98244.06;4375422;32;34069;-88
2021/11/27 03:24:29;;;;;;;14.10;8.73;;;;;;;6.26;58.17;98239.63;4375413;32;34449;-88
2021/11/27 03:26:58;;;;;;;15.38;9.48;;;;;;;6.19;58.63;98244.19;4350676;32;34096;-88
2021/11/27 03:29:26;;;;;;;17.00;9.82;;;;;;;5.48;59.73;98244.09;4362773;32;33011;-88
2021/11/27 03:32:01;;;;;;;15.85;9.63;;;;;;;5.65;60.04;98240.91;4338402;32;34080;-88
2021/11/27 03:34:31;;;;;;;15.82;9.35;;;;;;;5.93;59.56;98251.16;4374691;32;33399;-88
2021/11/27 03:37:00;;;;;;;15.88;9.65;;;;;;;5.91;59.60;98259.84;4375204;32;33978;-88
2021/11/27 03:39:27;;;;;;;16.23;9.77;;;;;;;5.89;59.34;98252.16;4362498;32;33733;-87
2021/11/27 03:41:59;;;;;;;15.10;8.98;;;;;;;6.02;58.79;98262.91;4375105;32;33702;-88
2021/11/27 03:44:27;;;;;;;16.62;9.75;;;;;;;5.77;59.42;98263.78;4375455;32;32684;-88
2021/11/27 03:46:55;;;;;;;16.05;9.00;;;;;;;6.05;58.67;98280.91;4351015;32;33625;-87
2021/11/27 03:49:24;;;;;;;14.93;8.77;;;;;;;6.21;57.53;98275.19;4362278;32;34070;-87
2021/11/27 03:51:52;;;;;;;15.75;9.70;;;;;;;5.89;58.61;98274.56;4374942;32;33247;-88
2021/11/27 03:54:21;;;;;;;15.25;8.57;;;;;;;5.37;59.97;98290.09;4350835;32;34000;-87
2021/11/27 03:56:49;;;;;;;15.70;8.73;;;;;;;5.51;59.74;98282.75;4374929;32;33866;-87
2021/11/27 03:59:18;;;;;;;15.75;9.48;;;;;;;5.31;59.85;98291.16;4375024;32;34638;-88
2021/11/27 04:01:47;;;;;;;17.77;9.50;;;;;;;5.88;58.57;98285.78;4362482;32;33952;-88
2021/11/27 04:04:17;;;;;;;16.23;8.60;;;;;;;5.59;59.83;98283.31;4362272;32;33223;-88
2021/11/27 04:06:45;;;;;;;16.20;8.98;;;;;;;5.80;59.20;98268.00;4362792;32;33387;-87
2021/11/27 04:09:14;;;;;;;15.40;9.25;;;;;;;5.61;60.18;98270.34;4362383;32;32895;-88
2021/11/27 04:11:43;;;;;;;14.45;8.52;;;;;;;5.28;61.58;98275.78;4349864;32;33183;-88
2021/11/27 04:14:12;;;;;;;14.27;8.30;;;;;;;5.77;59.81;98284.44;4350193;32;34007;-87
2021/11/27 04:16:42;;;;;;;14.98;8.70;;;;;;;5.43;60.54;98288.16;4350282;32;34172;-87
2021/11/27 04:19:11;;;;;;;16.75;9.43;;;;;;;5.19;61.54;98282.06;4362502;32;33119;-89
2021/11/27 04:21:39;;;;;;;15.60;9.32;;;;;;;5.40;61.16;98279.66;4362156;32;34046;-87
2021/11/27 04:24:07;;;;;;;16.25;9.45;;;;;;;5.18;61.24;98285.53;4374989;32;33645;-88
2021/11/27 04:26:35;;;;;;;16.77;9.20;;;;;;;5.59;60.45;98292.81;4350101;32;33339;-88
2021/11/27 04:29:03;;;;;;;14.15;8.70;;;;;;;5.19;61.41;98282.06;4337420;32;33547;-88
2021/11/27 04:31:32;;;;;;;13.85;9.27;;;;;;;5.08;61.74;98279.84;4362330;32;34055;-87
2021/11/27 04:34:01;;;;;;;14.02;9.00;;;;;;;5.31;61.20;98289.41;4362188;32;34406;-88
2021/11/27 04:36:28;;;;;;;16.23;9.95;;;;;;;5.13;61.73;98300.34;4374419;32;34038;-88
2021/11/27 04:38:57;;;;;;;15.95;9.35;;;;;;;5.24;61.40;98306.00;4362260;32;33039;-87
2021/11/27 04:41:25;;;;;;;16.25;9.57;;;;;;;4.75;63.19;98305.81;4374178;32;34042;-87
2021/11/27 04:43:53;;;;;;;16.20;9.57;;;;;;;5.28;61.42;98305.00;4349986;32;33945;-88
2021/11/27 04:46:21;;;;;;;13.93;9.18;;;;;;;5.27;61.67;98308.47;4362125;32;32850;-87
2021/11/27 04:48:50;;;;;;;15.25;8.43;;;;;;;5.51;61.19;98309.41;4362470;32;33409;-86
2021/11/27 04:51:19;;;;;;;14.52;8.05;;;;;;;5.39;61.42;98306.41;4386835;32;34531;-87
2021/11/27 04:53:47;;;;;;;14.82;9.23;;;;;;;5.42;61.44;98298.56;4349807;32;33543;-87
2021/11/27 04:56:17;;;;;;;13.95;9.00;;;;;;;5.79;60.76;98300.72;4362521;32;33114;-88
2021/11/27 04:58:45;;;;;;;16.15;9.27;;;;;;;5.91;59.84;98293.47;4337763;32;33724;-87
2021/11/27 05:01:13;;;;;;;14.32;8.82;;;;;;;5.56;60.66;98292.91;4362090;32;33383;-88
2021/11/27 05:03:48;;;;;;;13.00;7.78;;;;;;;5.32;61.07;98301.44;4373489;32;34037;-87
2021/11/27 05:06:17;;;;;;;15.68;8.07;;;;;;;5.35;61.31;98303.91;4349892;32;33792;-88
2021/11/27 05:08:45;;;;;;;12.15;7.97;;;;;;;5.30;61.44;98308.37;4361601;32;34160;-88
2021/11/27 05:11:16;;;;;;;14.35;8.52;;;;;;;5.23;61.32;98309.47;4349639;32;34895;-88
2021/11/27 05:13:44;;;;;;;13.18;8.10;;;;;;;5.13;61.17;98308.06;4361175;32;34141;-87
2021/11/27 05:16:12;;;;;;;14.70;9.00;;;;;;;5.27;61.06;98313.66;4361881;32;32704;-87
2021/11/27 05:18:40;;;;;;;13.55;7.85;;;;;;;5.39;60.74;98325.31;4374321;32;33639;-88
2021/11/27 05:21:12;;;;;;;16.70;9.23;;;;;;;5.42;60.40;98322.63;4361737;32;33190;-87
2021/11/27 05:23:40;;;;;;;13.80;8.38;;;;;;;5.01;62.11;98324.78;4374177;32;33896;-87
2021/11/27 05:26:11;;;;;;;14.07;8.02;;;;;;;5.10;61.42;98323.69;4373426;32;33979;-88
2021/11/27 05:28:49;;;;;;;14.82;8.80;;;;;;;5.00;61.57;98331.69;4362023;32;33092;-86
2021/11/27 05:31:18;;;;;;;18.73;9.13;;;;;;;4.76;62.45;98329.84;4361800;32;33345;-85
2021/11/27 05:34:09;;;;;;;14.95;7.85;;;;;;;5.17;61.37;98320.84;4361905;32;34278;-87
2021/11/27 05:36:39;;;;;;;18.23;11.93;;;;;;;5.30;61.16;98321.28;4361670;32;32369;-88
2021/11/27 05:39:07;;;;;;;22.85;12.85;;;;;;;5.27;61.34;98313.66;4361367;32;33450;-88
2021/11/27 05:41:35;;;;;;;15.40;10.07;;;;;;;5.37;61.12;98315.94;4374281;32;34324;-88
2021/11/27 05:44:03;;;;;;;13.68;8.90;;;;;;;5.28;61.02;98319.69;4361500;32;33532;-87
2021/11/27 05:46:32;;;;;;;18.15;11.60;;;;;;;5.50;60.40;98331.00;4361686;32;33885;-87
2021/11/27 05:49:00;;;;;;;16.75;9.75;;;;;;;5.27;60.92;98323.97;4349908;32;34332;-87
2021/11/27 05:51:30;;;;;;;20.50;11.77;;;;;;;5.60;60.31;98325.53;4363862;32;33150;-88
2021/11/27 05:53:58;;;;;;;19.15;12.00;;;;;;;5.76;59.80;98333.59;4361083;32;34151;-87
2021/11/27 05:56:27;;;;;;;17.52;10.63;;;;;;;5.48;60.63;98335.34;4384076;32;34750;-87
2021/11/27 05:58:56;;;;;;;13.30;8.10;;;;;;;5.77;59.83;98335.28;4362160;32;33986;-88
2021/11/27 06:01:25;;;;;;;15.50;8.85;;;;;;;5.78;59.45;98330.03;4374260;32;34834;-88
2021/11/27 06:03:53;;;;;;;14.52;8.88;;;;;;;5.27;60.71;98339.47;4374020;32;33706;-87
2021/11/27 06:06:21;;;;;;;13.48;8.40;;;;;;;5.67;59.68;98350.25;4361411;32;33093;-87
2021/11/27 06:08:48;;;;;;;14.77;9.23;;;;;;;5.42;60.38;98353.63;4374344;32;35094;-88
2021/11/27 06:11:16;;;;;;;14.98;8.90;;;;;;;5.21;61.18;98367.22;4373872;32;34074;-87
2021/11/27 06:13:44;;;;;;;14.63;8.75;;;;;;;5.25;60.87;98369.69;4361344;32;32918;-88
2021/11/27 06:16:13;;;;;;;15.55;8.65;;;;;;;5.18;61.09;98368.16;4373700;32;32479;-87
2021/11/27 06:18:41;;;;;;;15.63;9.45;;;;;;;5.17;60.90;98375.09;4361371;32;33188;-87
2021/11/27 06:21:09;;;;;;;16.05;10.13;;;;;;;4.93;61.33;98384.41;4361251;32;33394;-87
2021/11/27 06:23:37;;;;;;;15.93;10.27;;;;;;;5.25;61.04;98403.25;4361840;32;33747;-88
2021/11/27 06:26:05;;;;;;;16.33;10.15;;;;;;;5.46;60.50;98395.72;4363543;32;33049;-87
2021/11/27 06:28:33;;;;;;;17.87;10.13;;;;;;;5.51;60.31;98394.66;4351011;32;32897;-88
2021/11/27 06:31:01;;;;;;;16.73;9.32;;;;;;;5.64;60.15;98397.72;4363510;32;34164;-87
2021/11/27 06:33:42;;;;;;;19.62;11.07;;;;;;;5.28;60.98;98400.56;4363297;32;33006;-88
2021/11/27 06:36:10;;;;;;;19.30;11.95;;;;;;;5.42;60.75;98407.87;4350619;32;32258;-87
2021/11/27 06:38:38;;;;;;;18.80;11.35;;;;;;;5.43;60.75;98416.50;4350498;32;32598;-88
2021/11/27 06:41:09;;;;;;;19.77;10.98;;;;;;;5.22;61.48;98416.25;4375239;32;33805;-88
2021/11/27 06:43:37;;;;;;;16.90;10.50;;;;;;;5.16;61.54;98411.28;4375434;32;33289;-88
2021/11/27 06:46:07;;;;;;;18.83;11.02;;;;;;;5.35;61.04;98407.22;4363166;32;33568;-88
2021/11/27 06:48:36;;;;;;;19.62;10.90;;;;;;;5.21;61.17;98404.22;4362517;32;33148;-88
2021/11/27 06:51:04;;;;;;;17.58;11.48;;;;;;;5.16;61.65;98396.62;4363366;32;33747;-87
2021/11/27 06:53:33;;;;;;;19.08;10.80;;;;;;;5.15;61.27;98409.59;4375532;32;33203;-87
2021/11/27 06:56:02;;;;;;;18.70;10.50;;;;;;;5.38;60.39;98408.87;4362896;32;33617;-88
2021/11/27 06:58:31;;;;;;;18.00;9.88;;;;;;;5.32;60.79;98401.31;4363126;32;33823;-88
2021/11/27 07:01:00;;;;;;;17.25;9.48;;;;;;;5.73;59.47;98404.34;4363011;32;33291;-87
2021/11/27 07:03:32;;;;;;;18.65;9.88;;;;;;;5.61;59.73;98397.81;4351962;32;34513;-87
2021/11/27 07:06:05;;;;;;;18.92;10.45;;;;;;;5.50;59.82;98397.31;4363512;32;34165;-87
2021/11/27 07:08:33;;;;;;;17.37;9.43;;;;;;;5.16;60.83;98401.78;4362723;32;34440;-88
2021/11/27 07:11:02;;;;;;;18.08;11.45;;;;;;;5.58;59.94;98407.41;4350182;32;33260;-88
2021/11/27 07:13:30;;;;;;;19.33;9.98;;;;;;;5.49;59.91;98411.97;4362422;32;32386;-87
2021/11/27 07:15:58;;;;;;;17.02;10.20;;;;;;;5.43;60.13;98412.16;4350897;32;34716;-87
2021/11/27 07:18:26;;;;;;;17.98;10.50;;;;;;;5.65;59.52;98420.09;4362823;32;33924;-88
2021/11/27 07:20:53;;;;;;;19.40;10.45;;;;;;;5.17;60.75;98428.44;4362678;32;34013;-87
2021/11/27 07:23:21;;;;;;;18.33;10.48;;;;;;;5.23;61.07;98427.44;4375009;32;32986;-88
2021/11/27 07:25:49;;;;;;;17.00;10.35;;;;;;;5.33;60.93;98439.16;4375058;32;34105;-87
2021/11/27 07:28:18;;;;;;;17.10;9.95;;;;;;;5.59;60.13;98451.28;4374977;32;34656;-88
2021/11/27 07:30:45;;;;;;;17.52;10.35;;;;;;;5.78;59.47;98438.59;4362532;32;32841;-88
2021/11/27 07:33:14;;;;;;;18.73;10.48;;;;;;;5.53;60.55;98425.63;4362608;32;33056;-88
2021/11/27 07:35:41;;;;;;;17.70;10.43;;;;;;;5.65;60.66;98433.00;4361758;32;33565;-88
2021/11/27 07:38:09;;;;;;;17.98;10.32;;;;;;;5.50;60.66;98430.87;4362956;32;34582;-87
2021/11/27 07:40:37;;;;;;;16.55;10.18;;;;;;;5.98;59.29;98443.19;4374807;32;34002;-88
2021/11/27 07:43:05;;;;;;;18.15;10.70;;;;;;;6.11;59.06;98443.59;4362426;32;33868;-88
2021/11/27 07:45:35;;;;;;;18.37;10.25;;;;;;;5.80;59.21;98448.91;4362672;32;32611;-87
2021/11/27 07:48:14;;;;;;;17.40;10.30;;;;;;;5.68;59.71;98450.16;4375117;32;34415;-88
2021/11/27 07:50:45;;;;;;;21.00;10.25;;;;;;;6.06;59.06;98442.06;4350154;32;33664;-88
2021/11/27 07:53:14;;;;;;;18.42;10.45;;;;;;;5.81;59.16;98448.88;4350422;32;32984;-88
2021/11/27 07:55:43;;;;;;;18.58;11.05;;;;;;;5.98;59.38;98445.78;4362373;32;32959;-88
2021/11/27 07:58:11;;;;;;;16.67;9.85;;;;;;;6.10;58.97;98448.81;4375554;32;34013;-87
2021/11/27 08:00:38;;;;;;;16.02;9.80;;;;;;;6.28;58.36;98455.13;4338055;32;33454;-88
2021/11/27 08:03:06;;;;;;;19.00;10.55;;;;;;;6.46;57.78;98448.47;4387331;32;34669;-88
2021/11/27 08:05:34;;;;;;;15.88;9.82;;;;;;;6.27;58.86;98446.50;4362097;32;33739;-88
2021/11/27 08:08:02;;;;;;;19.20;10.23;;;;;;;6.60;57.90;98435.06;4362223;32;32618;-88
2021/11/27 08:10:31;;;;;;;16.45;9.55;;;;;;;6.70;57.83;98433.84;4362203;32;33364;-88
2021/11/27 08:12:58;;;;;;;16.08;10.15;;;;;;;6.57;58.04;98432.56;4374814;32;34655;-88
2021/11/27 08:15:26;;;;;;;16.87;10.20;;;;;;;6.55;58.25;98448.16;4374771;32;34114;-88
2021/11/27 08:17:54;;;;;;;18.20;10.93;;;;;;;6.64;58.13;98445.22;4361828;32;34436;-87
2021/11/27 08:20:22;;;;;;;17.40;11.52;;;;;;;6.82;57.40;98451.50;4362526;32;33843;-88
2021/11/27 08:22:50;;;;;;;16.00;10.25;;;;;;;6.73;57.50;98462.19;4362198;32;34383;-88
2021/11/27 08:25:18;;;;;;;15.85;10.10;;;;;;;6.64;57.86;98463.34;4386912;32;33365;-88
2021/11/27 08:27:46;;;;;;;18.67;10.82;;;;;;;6.76;57.44;98476.78;4361908;32;33974;-88
2021/11/27 08:30:14;;;;;;;15.27;9.30;;;;;;;6.68;57.81;98470.09;4350554;32;34062;-88
2021/11/27 08:32:49;;;;;;;18.83;10.75;;;;;;;6.94;57.27;98470.06;4374880;32;33623;-88
2021/11/27 08:35:17;;;;;;;18.62;10.63;;;;;;;7.07;56.81;98478.25;4362375;32;33701;-88
2021/11/27 08:37:45;;;;;;;22.17;11.80;;;;;;;6.88;57.44;98475.50;4364524;32;33035;-88
2021/11/27 08:40:13;;;;;;;16.85;9.93;;;;;;;7.10;57.14;98476.37;4364466;32;34506;-87
2021/11/27 08:42:42;;;;;;;14.65;8.60;;;;;;;7.10;57.04;98478.13;4373682;32;153588;-88
2021/11/27 08:45:11;;;;;;;15.02;8.85;;;;;;;7.31;56.11;98466.97;4365241;32;33570;-88
2021/11/27 08:47:39;;;;;;;16.60;9.82;;;;;;;7.31;55.48;98456.59;4362472;32;33997;-89
2021/11/27 08:50:09;;;;;;;15.40;8.88;;;;;;;7.29;55.26;98449.78;4349900;32;33849;-88
2021/11/27 08:52:38;;;;;;;14.05;8.75;;;;;;;7.40;54.95;98449.38;4350005;32;33388;-88
2021/11/27 08:55:06;;;;;;;17.23;9.35;;;;;;;7.47;55.33;98456.88;4374545;32;32959;-89
2021/11/27 08:57:34;;;;;;;15.15;9.02;;;;;;;7.34;55.99;98463.44;4362648;32;33866;-87
2021/11/27 09:00:07;;;;;;;12.02;7.68;;;;;;;7.43;55.51;98451.84;4350565;32;33695;-88
2021/11/27 09:02:35;;;;;;;15.45;8.63;;;;;;;7.61;55.10;98461.50;4349651;32;33065;-87
2021/11/27 09:05:03;;;;;;;14.52;8.68;;;;;;;7.64;55.11;98463.97;4362287;32;33008;-87
2021/11/27 09:07:31;;;;;;;15.93;9.18;;;;;;;7.58;54.46;98453.84;4350138;32;34440;-88
2021/11/27 09:09:58;;;;;;;14.10;9.20;;;;;;;7.70;54.00;98447.34;4362085;32;33455;-88
2021/11/27 09:12:26;;;;;;;15.25;8.32;;;;;;;7.72;54.45;98447.28;4374772;32;34472;-88
2021/11/27 09:14:55;;;;;;;16.08;9.60;;;;;;;7.87;53.62;98441.47;4374416;32;33714;-88
2021/11/27 09:17:22;;;;;;;15.55;9.35;;;;;;;7.67;53.52;98456.06;4362410;32;32541;-87
2021/11/27 09:19:51;;;;;;;14.38;8.77;;;;;;;7.40;54.60;98462.34;4362024;32;34741;-87
2021/11/27 09:22:18;;;;;;;16.62;9.27;;;;;;;7.75;54.12;98468.75;4374587;32;34599;-88
2021/11/27 09:24:46;;;;;;;15.48;9.18;;;;;;;7.50;54.28;98468.84;4361759;32;32823;-88
2021/11/27 09:27:15;;;;;;;17.83;9.15;;;;;;;7.49;54.43;98469.75;4361856;32;32855;-88
2021/11/27 09:29:43;;;;;;;18.55;8.85;;;;;;;7.60;54.44;98464.16;4361450;32;33244;-87
2021/11/27 09:32:11;;;;;;;16.05;9.60;;;;;;;7.50;54.96;98468.84;4349826;32;35457;-88
2021/11/27 09:34:39;;;;;;;19.10;10.35;;;;;;;7.74;54.31;98461.00;4361721;32;33408;-88
2021/11/27 09:37:12;;;;;;;16.83;9.70;;;;;;;7.86;53.75;98460.53;4374055;32;34079;-88
2021/11/27 09:39:42;;;;;;;18.15;9.80;;;;;;;7.93;53.71;98456.78;4373592;32;33388;-87
2021/11/27 09:42:15;;;;;;;15.38;9.65;;;;;;;8.05;53.27;98459.78;4362086;32;32878;-87
2021/11/27 09:44:48;;;;;;;16.65;10.55;;;;;;;7.83;53.47;98461.50;4374307;32;33269;-87
2021/11/27 09:47:16;;;;;;;16.10;9.85;;;;;;;7.97;52.65;98460.91;4349460;32;34174;-89
2021/11/27 09:49:46;;;;;;;15.13;9.15;;;;;;;7.86;52.92;98473.50;4361844;32;34123;-88
2021/11/27 09:52:13;;;;;;;14.98;9.05;;;;;;;7.93;52.81;98480.09;4362037;32;34503;-88
2021/11/27 09:54:41;;;;;;;14.90;9.18;;;;;;;8.08;52.32;98470.84;4349766;32;33411;-88
2021/11/27 09:57:10;;;;;;;17.70;9.55;;;;;;;8.16;52.25;98454.97;4349348;32;34484;-88
2021/11/27 09:59:39;;;;;;;14.48;9.73;;;;;;;8.07;52.61;98457.94;4373367;32;35570;-87
2021/11/27 10:02:09;;;;;;;15.73;9.63;;;;;;;7.98;52.81;98467.81;4361581;32;33231;-88
2021/11/27 10:04:40;;;;;;;15.90;9.95;;;;;;;8.02;53.12;98478.91;4361616;32;32533;-88
2021/11/27 10:07:11;;;;;;;15.85;9.68;;;;;;;7.83;54.03;98466.69;4373710;32;33906;-88
2021/11/27 10:09:39;;;;;;;15.45;8.82;;;;;;;8.15;52.62;98446.37;4337032;32;33701;-88
2021/11/27 10:12:08;;;;;;;15.35;9.80;;;;;;;8.39;52.01;98458.34;4348931;32;32824;-88
2021/11/27 10:14:37;;;;;;;14.45;9.32;;;;;;;7.92;53.65;98475.00;4336909;32;32269;-88
2021/11/27 10:17:10;;;;;;;17.37;9.48;;;;;;;7.34;54.79;98463.44;4348765;32;34015;-88
2021/11/27 10:19:41;;;;;;;;;;;;;;;7.85;54.11;98474.41;4361428;32;33908;-88
2021/11/27 10:22:11;;;;;;;13.90;8.73;;;;;;;7.86;52.90;98471.72;4375016;32;34340;-88
2021/11/27 10:24:39;;;;;;;14.87;9.23;;;;;;;7.91;53.05;98476.75;4348915;32;33136;-87
2021/11/27 10:27:20;;;;;;;16.52;10.20;;;;;;;7.52;53.43;98467.91;4348832;32;32661;-88
2021/11/27 10:29:56;;;;;;;;;;;;;;;7.55;52.82;98459.13;4373316;32;34035;-88
2021/11/27 10:32:39;;;;;;;17.95;10.23;;;;;;;7.65;53.42;98464.81;4360477;32;34101;-88
2021/11/27 10:35:21;;;;;;;21.40;11.73;;;;;;;7.92;52.83;98455.06;4373260;32;33410;-87
2021/11/27 10:37:53;;;;;;;17.80;10.77;;;;;;;8.05;52.95;98447.66;4361025;32;33735;-88
2021/11/27 10:40:24;;;;;;;18.20;10.43;;;;;;;7.96;53.49;98451.44;4349090;32;33999;-87
2021/11/27 10:42:55;;;;;;;18.17;9.63;;;;;;;8.05;52.90;98437.25;4373180;32;32804;-88
2021/11/27 10:45:26;;;;;;;17.15;9.55;;;;;;;8.50;52.35;98435.44;4349079;32;33373;-88
2021/11/27 10:48:06;;;;;;;14.35;8.85;;;;;;;8.28;51.80;98449.28;4360253;32;33488;-88
2021/11/27 10:50:52;;;;;;;12.80;7.57;;;;;;;7.99;52.11;98450.47;4360876;32;33698;-88
2021/11/27 10:53:23;;;;;;;11.60;6.80;;;;;;;7.97;52.09;98439.34;4360764;32;33304;-88
2021/11/27 10:55:51;;;;;;;13.15;8.10;;;;;;;8.05;51.81;98434.69;4373309;32;33686;-87
2021/11/27 10:58:19;;;;;;;13.98;8.85;;;;;;;8.23;51.87;98443.44;4348500;32;33123;-87
2021/11/27 11:00:49;;;;;;;13.32;7.85;;;;;;;8.21;52.27;98445.25;4360757;32;34129;-88
2021/11/27 11:03:25;;;;;;;17.05;9.43;;;;;;;7.88;52.25;98463.06;4348606;32;34624;-88
2021/11/27 11:05:55;;;;;;;16.25;10.02;;;;;;;7.38;54.28;98474.50;4372914;32;32804;-88
2021/11/27 11:08:37;;;;;;;15.10;10.05;;;;;;;7.73;53.92;98467.13;4360804;32;33017;-88
2021/11/27 11:11:19;;;;;;;16.75;10.45;;;;;;;7.88;53.16;98457.88;4338124;32;33276;-88
2021/11/27 11:13:53;;;;;;;16.98;9.90;;;;;;;7.88;53.24;98456.09;4362950;32;32923;-87
2021/11/27 11:16:23;;;;;;;14.93;8.68;;;;;;;7.89;52.70;98452.63;4350918;32;33449;-87
2021/11/27 11:18:52;;;;;;;16.65;9.95;;;;;;;7.95;52.76;98449.78;4362564;32;33293;-88
2021/11/27 11:21:22;;;;;;;16.10;9.32;;;;;;;8.23;52.18;98440.00;4362940;32;33830;-88
2021/11/27 11:23:50;;;;;;;16.33;9.65;;;;;;;8.56;51.83;98442.91;4364429;32;32819;-88
2021/11/27 11:26:38;;;;;;;14.25;8.85;;;;;;;8.25;52.58;98446.81;4368374;32;33737;-87
2021/11/27 11:29:06;;;;;;;16.85;9.32;;;;;;;8.54;52.21;98439.56;4364817;32;34233;-87
2021/11/27 11:31:34;;;;;;;16.58;9.68;;;;;;;8.90;51.82;98435.44;4362565;32;34475;-87
2021/11/27 11:34:06;;;;;;;16.60;9.50;;;;;;;8.93;51.34;98430.91;4363193;32;33434;-87
2021/11/27 11:36:55;;;;;;;14.02;8.60;;;;;;;8.91;52.01;98430.16;4352417;32;33825;-88
2021/11/27 11:39:23;;;;;;;15.52;8.88;;;;;;;8.95;50.53;98423.06;4350034;32;33029;-87
2021/11/27 11:41:51;;;;;;;14.05;8.32;;;;;;;9.05;50.40;98415.69;4350163;32;35052;-87